sensor_id;sensor_type;location;lat;lon;timestamp;pressure;altitude;pressure_sealevel;temperature;humidity
5238;BME280;2639;49.700;7.962;2022-12-07T04:13:04;98826.88;;;3.81;100.00
5238;BME280;2639;49.700;7.962;2022-12-07T04:16:14;98817.88;;;3.76;100.00
5238;BME280;2639;49.700;7.962;2022-12-07T04:19:25;98830.44;;;3.74;100.00
5238;BME280;2639;49.700;7.962;2022-12-07T04:22:36;98818.19;;;3.79;100.00
5238;BME280;2639;49.700;7.962;2022-12-07T04:25:47;98815.78;;;3.72;100.00
5238;BME280;2639;49.700;7.962;2022-12-07T04:28:59;98815.13;;;3.66;100.00
5238;BME280;2639;49.700;7.962;2022-12-07T04:32:15;98813.34;;;3.65;100.00
5238;BME280;2639;49.700;7.962;2022-12-07T04:35:25;98810.47;;;3.62;100.00
5238;BME280;2639;49.700;7.962;2022-12-07T04:38:35;98816.97;;;3.67;100.00
5238;BME280;2639;49.700;7.962;2022-12-07T04:41:45;98813.94;;;3.62;100.00
5238;BME280;2639;49.700;7.962;2022-12-07T04:44:56;98814.84;;;3.63;100.00
5238;BME280;2639;49.700;7.962;2022-12-07T04:48:06;98813.34;;;3.65;100.00
5238;BME280;2639;49.700;7.962;2022-12-07T04:51:19;98803.19;;;3.65;100.00
5238;BME280;2639;49.700;7.962;2022-12-07T04:54:32;98810.97;;;3.66;100.00
5238;BME280;2639;49.700;7.962;2022-12-07T04:57:42;98810.97;;;3.66;100.00
5238;BME280;2639;49.700;7.962;2022-12-07T05:00:55;98808.28;;;3.73;100.00
5238;BME280;2639;49.700;7.962;2022-12-07T05:04:05;98817.56;;;3.73;100.00
5238;BME280;2639;49.700;7.962;2022-12-07T05:07:15;98809.63;;;3.70;100.00
5238;BME280;2639;49.700;7.962;2022-12-07T05:10:25;98803.50;;;3.68;100.00
5238;BME280;2639;49.700;7.962;2022-12-07T05:13:35;98802.63;;;3.67;100.00
5238;BME280;2639;49.700;7.962;2022-12-07T05:16:48;98804.72;;;3.71;100.00
5238;BME280;2639;49.700;7.962;2022-12-07T05:19:59;98802.03;;;3.70;100.00
5238;BME280;2639;49.700;7.962;2022-12-07T05:23:10;98802.31;;;3.73;100.00
5238;BME280;2639;49.700;7.962;2022-12-07T05:26:20;98796.94;;;3.70;100.00
5238;BME280;2639;49.700;7.962;2022-12-07T05:29:30;98801.72;;;3.75;100.00
5238;BME280;2639;49.700;7.962;2022-12-07T05:32:41;98801.91;;;3.77;100.00
5238;BME280;2639;49.700;7.962;2022-12-07T05:35:51;98800.38;;;3.70;100.00
5238;BME280;2639;49.700;7.962;2022-12-07T05:39:02;98795.72;;;3.66;100.00
5238;BME280;2639;49.700;7.962;2022-12-07T05:42:12;98794.94;;;3.58;100.00
5238;BME280;2639;49.700;7.962;2022-12-07T05:45:22;98799.59;;;3.63;100.00
5238;BME280;2639;49.700;7.962;2022-12-07T05:48:33;98797.78;;;3.62;100.00
5238;BME280;2639;49.700;7.962;2022-12-07T05:51:45;98790.28;;;3.54;100.00
5238;BME280;2639;49.700;7.962;2022-12-07T05:54:55;98805.84;;;3.57;100.00
5238;BME280;2639;49.700;7.962;2022-12-07T05:58:08;98799.28;;;3.59;100.00
5238;BME280;2639;49.700;7.962;2022-12-07T07:22:01;98824.56;;;4.00;100.00
5238;BME280;2639;49.700;7.962;2022-12-07T07:25:11;98819.63;;;4.02;100.00
5238;BME280;2639;49.700;7.962;2022-12-07T07:28:21;98822.91;;;4.00;100.00
5238;BME280;2639;49.700;7.962;2022-12-07T07:31:31;98828.16;;;4.02;100.00
5238;BME280;2639;49.700;7.962;2022-12-07T07:34:44;98826.06;;;4.07;100.00
5238;BME280;2639;49.700;7.962;2022-12-07T07:37:55;98823.09;;;4.11;100.00
5238;BME280;2639;49.700;7.962;2022-12-07T07:41:05;98828.16;;;4.02;100.00
5238;BME280;2639;49.700;7.962;2022-12-07T07:44:15;98830.25;;;4.06;100.00
5238;BME280;2639;49.700;7.962;2022-12-07T07:47:25;98832.69;;;4.13;100.00
5238;BME280;2639;49.700;7.962;2022-12-07T07:50:35;98836.56;;;4.18;100.00
5238;BME280;2639;49.700;7.962;2022-12-07T07:53:46;98836.56;;;4.18;100.00
5238;BME280;2639;49.700;7.962;2022-12-07T07:56:56;98834.50;;;4.23;100.00
5238;BME280;2639;49.700;7.962;2022-12-07T08:00:08;98833.31;;;4.28;100.00
5238;BME280;2639;49.700;7.962;2022-12-07T08:03:21;98839.28;;;4.29;100.00
5238;BME280;2639;49.700;7.962;2022-12-07T08:06:30;98847.34;;;4.33;100.00
5238;BME280;2639;49.700;7.962;2022-12-07T08:09:42;98850.97;;;4.35;100.00
5238;BME280;2639;49.700;7.962;2022-12-07T08:12:52;98848.28;;;4.42;100.00
5238;BME280;2639;49.700;7.962;2022-12-07T08:16:13;98840.66;;;4.42;100.00
5238;BME280;2639;49.700;7.962;2022-12-07T08:19:24;98846.06;;;4.46;100.00
5238;BME280;2639;49.700;7.962;2022-12-07T08:22:34;98846.78;;;4.45;100.00
5238;BME280;2639;49.700;7.962;2022-12-07T08:25:45;98848.72;;;4.38;100.00
5238;BME280;2639;49.700;7.962;2022-12-07T08:28:55;98854.84;;;4.32;100.00
5238;BME280;2639;49.700;7.962;2022-12-07T08:32:05;98853.34;;;4.25;100.00
5238;BME280;2639;49.700;7.962;2022-12-07T08:35:17;98851.06;;;4.11;100.00
5238;BME280;2639;49.700;7.962;2022-12-07T08:38:27;98853.25;;;4.08;100.00
5238;BME280;2639;49.700;7.962;2022-12-07T08:41:41;98855.50;;;4.05;100.00
5238;BME280;2639;49.700;7.962;2022-12-07T08:44:51;98852.31;;;3.98;100.00
5238;BME280;2639;49.700;7.962;2022-12-07T08:48:05;98854.56;;;3.95;100.00
5238;BME280;2639;49.700;7.962;2022-12-07T08:51:16;98859.91;;;3.90;100.00
5238;BME280;2639;49.700;7.962;2022-12-07T08:54:28;98861.13;;;3.93;100.00
5238;BME280;2639;49.700;7.962;2022-12-07T08:57:40;98855.63;;;3.97;100.00
5238;BME280;2639;49.700;7.962;2022-12-07T09:00:51;98851.13;;;3.95;100.00
5238;BME280;2639;49.700;7.962;2022-12-07T09:04:01;98854.09;;;3.91;100.00
5238;BME280;2639;49.700;7.962;2022-12-07T09:07:11;98844.41;;;3.95;100.00
5238;BME280;2639;49.700;7.962;2022-12-07T09:10:21;98850.53;;;3.97;100.00
5238;BME280;2639;49.700;7.962;2022-12-07T09:13:33;98854.75;;;4.06;100.00
5238;BME280;2639;49.700;7.962;2022-12-07T09:16:43;98857.78;;;4.19;100.00
5238;BME280;2639;49.700;7.962;2022-12-07T09:19:53;98858.16;;;4.39;100.00
5238;BME280;2639;49.700;7.962;2022-12-07T09:23:05;98855.50;;;4.64;100.00
5238;BME280;2639;49.700;7.962;2022-12-07T09:26:15;98859.28;;;4.85;100.00
5238;BME280;2639;49.700;7.962;2022-12-07T09:29:27;98855.22;;;4.96;100.00
5238;BME280;2639;49.700;7.962;2022-12-07T09:32:37;98853.44;;;5.12;98.72
5238;BME280;2639;49.700;7.962;2022-12-07T09:35:48;98856.25;;;5.24;97.44
5238;BME280;2639;49.700;7.962;2022-12-07T09:39:02;98854.00;;;5.36;95.61
5238;BME280;2639;49.700;7.962;2022-12-07T09:42:24;98851.34;;;5.25;95.59
5238;BME280;2639;49.700;7.962;2022-12-07T09:45:39;98850.72;;;5.37;94.39
5238;BME280;2639;49.700;7.962;2022-12-07T09:48:56;98857.03;;;5.32;94.60
5238;BME280;2639;49.700;7.962;2022-12-07T09:52:17;98847.41;;;5.38;94.11
5238;BME280;2639;49.700;7.962;2022-12-07T09:55:29;98847.41;;;5.46;94.78
5238;BME280;2639;49.700;7.962;2022-12-07T09:58:40;98837.94;;;5.63;93.80
5238;BME280;2639;49.700;7.962;2022-12-07T10:01:52;98838.66;;;5.70;91.38
5238;BME280;2639;49.700;7.962;2022-12-07T10:05:05;98831.78;;;5.69;92.24
5238;BME280;2639;49.700;7.962;2022-12-07T10:08:16;98839.25;;;5.77;90.80
5238;BME280;2639;49.700;7.962;2022-12-07T10:11:27;98838.63;;;5.79;90.69
5238;BME280;2639;49.700;7.962;2022-12-07T10:14:39;98829.69;;;5.65;90.19
5238;BME280;2639;49.700;7.962;2022-12-07T10:18:20;98824.22;;;5.80;88.15
5238;BME280;2639;49.700;7.962;2022-12-07T10:21:30;98821.22;;;5.84;88.56
5238;BME280;2639;49.700;7.962;2022-12-07T10:24:42;98811.81;;;5.83;88.92
5238;BME280;2639;49.700;7.962;2022-12-07T10:27:58;98811.00;;;5.93;86.24
5238;BME280;2639;49.700;7.962;2022-12-07T10:31:16;98805.75;;;6.27;82.93
5238;BME280;2639;49.700;7.962;2022-12-07T10:34:30;98805.00;;;6.47;80.85
5238;BME280;2639;49.700;7.962;2022-12-07T10:37:47;98791.94;;;6.72;80.55
5238;BME280;2639;49.700;7.962;2022-12-07T10:41:05;98794.91;;;6.77;79.28
5238;BME280;2639;49.700;7.962;2022-12-07T10:44:21;98790.56;;;6.94;80.09
5238;BME280;2639;49.700;7.962;2022-12-07T10:47:35;98777.00;;;7.14;77.23
5238;BME280;2639;49.700;7.962;2022-12-07T10:50:57;98777.06;;;7.25;76.28
5238;BME280;2639;49.700;7.962;2022-12-07T10:54:16;98776.25;;;7.45;76.59
5238;BME280;2639;49.700;7.962;2022-12-07T10:57:39;98770.16;;;7.53;74.75
5238;BME280;2639;49.700;7.962;2022-12-07T11:00:56;98771.56;;;7.20;74.62
5238;BME280;2639;49.700;7.962;2022-12-07T11:04:18;98766.13;;;7.07;77.55
5238;BME280;2639;49.700;7.962;2022-12-07T11:07:41;98761.44;;;7.41;76.80
5238;BME280;2639;49.700;7.962;2022-12-07T11:10:56;98764.56;;;7.57;75.32
5238;BME280;2639;49.700;7.962;2022-12-07T11:14:15;98763.53;;;7.55;73.13
5238;BME280;2639;49.700;7.962;2022-12-07T11:17:35;98752.44;;;7.75;74.37
5238;BME280;2639;49.700;7.962;2022-12-07T11:20:54;98760.53;;;8.00;72.84
5238;BME280;2639;49.700;7.962;2022-12-07T11:24:12;98751.09;;;8.30;71.51
5238;BME280;2639;49.700;7.962;2022-12-07T11:27:29;98767.31;;;8.10;71.99
5238;BME280;2639;49.700;7.962;2022-12-07T11:30:49;98750.56;;;7.83;73.61
5238;BME280;2639;49.700;7.962;2022-12-07T11:34:09;98740.03;;;7.79;74.18
5238;BME280;2639;49.700;7.962;2022-12-07T11:37:28;98740.81;;;7.68;74.58
5238;BME280;2639;49.700;7.962;2022-12-07T11:40:49;98732.56;;;7.52;74.89
5238;BME280;2639;49.700;7.962;2022-12-07T11:44:05;98745.16;;;7.59;75.37
5238;BME280;2639;49.700;7.962;2022-12-07T11:47:20;98736.78;;;7.51;75.02
5238;BME280;2639;49.700;7.962;2022-12-07T11:50:36;98728.09;;;7.39;75.81
5238;BME280;2639;49.700;7.962;2022-12-07T11:53:51;98725.53;;;7.39;76.32
5238;BME280;2639;49.700;7.962;2022-12-07T11:57:12;98737.28;;;7.37;75.86
5238;BME280;2639;49.700;7.962;2022-12-07T12:00:28;98732.47;;;7.50;75.11
5238;BME280;2639;49.700;7.962;2022-12-07T12:03:40;98724.16;;;7.53;74.26
5238;BME280;2639;49.700;7.962;2022-12-07T12:07:00;98730.03;;;7.52;75.47
5238;BME280;2639;49.700;7.962;2022-12-07T12:10:37;98714.84;;;7.53;76.32
5238;BME280;2639;49.700;7.962;2022-12-07T12:14:08;98717.22;;;7.31;76.64
5238;BME280;2639;49.700;7.962;2022-12-07T12:17:47;98718.59;;;7.28;77.11
5238;BME280;2639;49.700;7.962;2022-12-07T12:21:02;98711.72;;;7.37;77.00
5238;BME280;2639;49.700;7.962;2022-12-07T12:24:16;98709.59;;;7.52;76.53
5238;BME280;2639;49.700;7.962;2022-12-07T12:27:32;98708.34;;;7.67;74.21
5238;BME280;2639;49.700;7.962;2022-12-07T12:30:44;98693.28;;;7.91;73.92
5238;BME280;2639;49.700;7.962;2022-12-07T12:33:56;98696.13;;;8.25;72.89
5238;BME280;2639;49.700;7.962;2022-12-07T12:37:39;98689.22;;;8.44;71.49
5238;BME280;2639;49.700;7.962;2022-12-07T12:40:49;98689.06;;;8.32;70.39
5238;BME280;2639;49.700;7.962;2022-12-07T12:44:00;98687.44;;;8.12;70.78
5238;BME280;2639;49.700;7.962;2022-12-07T12:50:45;98688.44;;;7.73;72.36
5238;BME280;2639;49.700;7.962;2022-12-07T12:54:03;98673.63;;;7.90;72.65
5238;BME280;2639;49.700;7.962;2022-12-07T12:57:17;98673.72;;;8.12;74.66
5238;BME280;2639;49.700;7.962;2022-12-07T13:00:31;98675.94;;;7.87;72.02
5238;BME280;2639;49.700;7.962;2022-12-07T13:03:52;98674.97;;;7.45;72.73
5238;BME280;2639;49.700;7.962;2022-12-07T13:07:04;98671.19;;;7.21;74.96
5238;BME280;2639;49.700;7.962;2022-12-07T13:10:22;98675.50;;;7.12;75.47
5238;BME280;2639;49.700;7.962;2022-12-07T13:13:37;98675.03;;;6.87;75.65
5238;BME280;2639;49.700;7.962;2022-12-07T13:16:47;98665.22;;;6.62;77.39
5238;BME280;2639;49.700;7.962;2022-12-07T13:19:59;98673.75;;;6.34;77.36
5238;BME280;2639;49.700;7.962;2022-12-07T13:23:12;98674.06;;;6.28;79.37
5238;BME280;2639;49.700;7.962;2022-12-07T13:26:35;98679.72;;;6.34;78.79
5238;BME280;2639;49.700;7.962;2022-12-07T13:29:46;98677.22;;;6.44;79.40
5238;BME280;2639;49.700;7.962;2022-12-07T13:32:59;98673.72;;;6.52;79.37
5238;BME280;2639;49.700;7.962;2022-12-07T13:36:17;98670.19;;;6.61;79.62
5238;BME280;2639;49.700;7.962;2022-12-07T13:39:33;98656.28;;;6.57;79.39
5238;BME280;2639;49.700;7.962;2022-12-07T13:42:45;98660.84;;;6.32;77.95
5238;BME280;2639;49.700;7.962;2022-12-07T13:45:56;98655.25;;;6.17;78.12
5238;BME280;2639;49.700;7.962;2022-12-07T13:49:17;98657.31;;;6.02;78.16
5238;BME280;2639;49.700;7.962;2022-12-07T13:52:29;98650.31;;;5.91;79.82
5238;BME280;2639;49.700;7.962;2022-12-07T13:59:26;98658.81;;;5.73;80.13
5238;BME280;2639;49.700;7.962;2022-12-07T14:02:36;98650.75;;;5.68;80.22
5238;BME280;2639;49.700;7.962;2022-12-07T14:06:05;98650.88;;;5.51;80.65
5238;BME280;2639;49.700;7.962;2022-12-07T14:09:18;98656.84;;;5.51;81.04
5238;BME280;2639;49.700;7.962;2022-12-07T14:12:30;98659.59;;;5.44;81.30
5238;BME280;2639;49.700;7.962;2022-12-07T14:15:42;98658.81;;;5.45;82.16
5238;BME280;2639;49.700;7.962;2022-12-07T14:18:52;98657.78;;;5.43;82.75
5238;BME280;2639;49.700;7.962;2022-12-07T14:22:07;98663.16;;;5.55;82.50
5238;BME280;2639;49.700;7.962;2022-12-07T14:25:20;98662.97;;;5.62;82.16
5238;BME280;2639;49.700;7.962;2022-12-07T14:28:32;98656.66;;;5.58;82.88
5238;BME280;2639;49.700;7.962;2022-12-07T14:31:44;98657.97;;;5.63;82.34
5238;BME280;2639;49.700;7.962;2022-12-07T14:34:56;98643.47;;;5.62;82.48
5238;BME280;2639;49.700;7.962;2022-12-07T14:38:07;98651.00;;;5.52;82.74
5238;BME280;2639;49.700;7.962;2022-12-07T14:41:20;98647.06;;;5.37;81.98
5238;BME280;2639;49.700;7.962;2022-12-07T14:44:43;98647.44;;;5.22;83.22
5238;BME280;2639;49.700;7.962;2022-12-07T14:47:55;98652.69;;;5.15;83.03
5238;BME280;2639;49.700;7.962;2022-12-07T14:51:25;98647.81;;;4.99;83.25
5238;BME280;2639;49.700;7.962;2022-12-07T14:54:55;98641.25;;;4.93;83.95
5238;BME280;2639;49.700;7.962;2022-12-07T14:58:04;98648.09;;;4.94;84.36
5238;BME280;2639;49.700;7.962;2022-12-07T15:04:47;98653.81;;;4.82;85.47
5238;BME280;2639;49.700;7.962;2022-12-07T15:07:57;98642.78;;;4.73;86.06
5238;BME280;2639;49.700;7.962;2022-12-07T15:11:09;98637.13;;;4.67;87.29
5238;BME280;2639;49.700;7.962;2022-12-07T15:14:20;98640.72;;;4.69;87.47
5238;BME280;2639;49.700;7.962;2022-12-07T15:17:30;98636.78;;;4.81;87.25
5238;BME280;2639;49.700;7.962;2022-12-07T15:20:41;98633.78;;;4.85;86.98
5238;BME280;2639;49.700;7.962;2022-12-07T15:23:52;98635.44;;;4.85;87.66
5238;BME280;2639;49.700;7.962;2022-12-07T15:27:03;98630.19;;;4.83;87.30
5238;BME280;2639;49.700;7.962;2022-12-07T15:30:13;98632.59;;;4.82;87.35
5238;BME280;2639;49.700;7.962;2022-12-07T15:33:23;98625.44;;;4.69;88.05
5238;BME280;2639;49.700;7.962;2022-12-07T15:36:35;98624.56;;;4.60;88.30
5238;BME280;2639;49.700;7.962;2022-12-07T15:39:45;98619.50;;;4.51;88.07
5238;BME280;2639;49.700;7.962;2022-12-07T15:42:57;98622.94;;;4.43;88.74
5238;BME280;2639;49.700;7.962;2022-12-07T15:46:08;98629.53;;;4.32;89.18
5238;BME280;2639;49.700;7.962;2022-12-07T15:49:18;98628.81;;;4.16;90.23
5238;BME280;2639;49.700;7.962;2022-12-07T15:52:29;98628.34;;;4.03;91.25
5238;BME280;2639;49.700;7.962;2022-12-07T15:55:40;98627.28;;;3.92;91.68
5238;BME280;2639;49.700;7.962;2022-12-07T15:58:50;98621.19;;;3.81;91.94
5238;BME280;2639;49.700;7.962;2022-12-07T16:02:00;98613.38;;;3.71;92.26
5238;BME280;2639;49.700;7.962;2022-12-07T16:05:10;98620.09;;;3.62;93.39
5238;BME280;2639;49.700;7.962;2022-12-07T16:08:21;98613.38;;;3.53;94.73
5238;BME280;2639;49.700;7.962;2022-12-07T16:11:32;98612.88;;;3.40;95.95
5238;BME280;2639;49.700;7.962;2022-12-07T16:14:42;98608.72;;;3.32;96.27
5238;BME280;2639;49.700;7.962;2022-12-07T16:17:52;98616.41;;;3.25;96.60
5238;BME280;2639;49.700;7.962;2022-12-07T16:21:04;98618.03;;;3.15;97.75
5238;BME280;2639;49.700;7.962;2022-12-07T16:24:15;98619.63;;;3.06;98.58
5238;BME280;2639;49.700;7.962;2022-12-07T16:35:15;98624.00;;;2.83;98.73
5238;BME280;2639;49.700;7.962;2022-12-07T16:38:26;98611.16;;;2.72;100.00
5238;BME280;2639;49.700;7.962;2022-12-07T16:41:37;98614.09;;;2.68;100.00
5238;BME280;2639;49.700;7.962;2022-12-07T16:44:47;98609.03;;;2.68;100.00
5238;BME280;2639;49.700;7.962;2022-12-07T16:47:57;98612.31;;;2.67;100.00
5238;BME280;2639;49.700;7.962;2022-12-07T16:51:09;98614.84;;;2.67;100.00
5238;BME280;2639;49.700;7.962;2022-12-07T16:54:20;98620.06;;;2.69;100.00
5238;BME280;2639;49.700;7.962;2022-12-07T16:57:31;98620.97;;;2.69;100.00
5238;BME280;2639;49.700;7.962;2022-12-07T17:00:42;98618.00;;;2.73;100.00
5238;BME280;2639;49.700;7.962;2022-12-07T17:03:52;98609.97;;;2.78;100.00
5238;BME280;2639;49.700;7.962;2022-12-07T17:07:02;98608.31;;;2.78;100.00
5238;BME280;2639;49.700;7.962;2022-12-07T17:10:12;98607.44;;;2.78;100.00
5238;BME280;2639;49.700;7.962;2022-12-07T17:13:24;98606.84;;;2.80;100.00
5238;BME280;2639;49.700;7.962;2022-12-07T17:16:45;98612.69;;;2.79;100.00
5238;BME280;2639;49.700;7.962;2022-12-07T17:19:55;98617.16;;;2.82;100.00
5238;BME280;2639;49.700;7.962;2022-12-07T17:23:05;98604.31;;;2.80;100.00
5238;BME280;2639;49.700;7.962;2022-12-07T17:26:18;98601.66;;;2.79;100.00
5238;BME280;2639;49.700;7.962;2022-12-07T17:29:32;98591.50;;;2.79;100.00
5238;BME280;2639;49.700;7.962;2022-12-07T17:32:42;98602.66;;;2.81;100.00
5238;BME280;2639;49.700;7.962;2022-12-07T17:35:52;98603.41;;;2.80;100.00
5238;BME280;2639;49.700;7.962;2022-12-07T17:39:06;98597.59;;;2.81;100.00
5238;BME280;2639;49.700;7.962;2022-12-07T17:42:16;98600.59;;;2.85;100.00
5238;BME280;2639;49.700;7.962;2022-12-07T17:45:39;98593.91;;;2.86;100.00
5238;BME280;2639;49.700;7.962;2022-12-07T17:48:49;98587.38;;;2.88;100.00
5238;BME280;2639;49.700;7.962;2022-12-07T17:51:59;98582.28;;;2.88;100.00
5238;BME280;2639;49.700;7.962;2022-12-07T17:55:23;98582.59;;;2.91;100.00
5238;BME280;2639;49.700;7.962;2022-12-07T17:58:33;98581.72;;;2.90;100.00
5238;BME280;2639;49.700;7.962;2022-12-07T18:01:45;98586.50;;;2.96;100.00
5238;BME280;2639;49.700;7.962;2022-12-07T18:04:55;98576.50;;;2.98;100.00
5238;BME280;2639;49.700;7.962;2022-12-07T18:08:05;98576.66;;;2.99;100.00
5238;BME280;2639;49.700;7.962;2022-12-07T18:11:16;98570.69;;;2.99;100.00
5238;BME280;2639;49.700;7.962;2022-12-07T18:14:26;98563.97;;;2.99;100.00
5238;BME280;2639;49.700;7.962;2022-12-07T18:17:38;98565.47;;;2.97;100.00
5238;BME280;2639;49.700;7.962;2022-12-07T18:20:50;98558.75;;;2.98;100.00
5238;BME280;2639;49.700;7.962;2022-12-07T18:24:02;98557.13;;;2.98;100.00
5238;BME280;2639;49.700;7.962;2022-12-07T18:27:12;98551.28;;;2.99;100.00
5238;BME280;2639;49.700;7.962;2022-12-07T18:30:23;98555.75;;;3.02;100.00
5238;BME280;2639;49.700;7.962;2022-12-07T18:33:54;98556.97;;;3.05;100.00
5238;BME280;2639;49.700;7.962;2022-12-07T18:37:04;98546.25;;;3.08;100.00
5238;BME280;2639;49.700;7.962;2022-12-07T18:40:14;98542.81;;;3.07;100.00
5238;BME280;2639;49.700;7.962;2022-12-07T18:43:25;98539.53;;;3.08;100.00
5238;BME280;2639;49.700;7.962;2022-12-07T18:46:35;98545.81;;;3.12;100.00
5238;BME280;2639;49.700;7.962;2022-12-07T18:49:47;98544.16;;;3.12;100.00
5238;BME280;2639;49.700;7.962;2022-12-07T18:52:57;98549.88;;;3.19;100.00
5238;BME280;2639;49.700;7.962;2022-12-07T18:56:10;98553.00;;;3.25;100.00
5238;BME280;2639;49.700;7.962;2022-12-07T18:59:21;98547.78;;;3.23;100.00
5238;BME280;2639;49.700;7.962;2022-12-07T19:02:45;98529.88;;;3.22;100.00
5238;BME280;2639;49.700;7.962;2022-12-07T19:05:57;98525.69;;;3.22;100.00
5238;BME280;2639;49.700;7.962;2022-12-07T19:09:07;98531.53;;;3.30;100.00
5238;BME280;2639;49.700;7.962;2022-12-07T19:12:17;98533.94;;;3.37;100.00
5238;BME280;2639;49.700;7.962;2022-12-07T19:15:27;98536.31;;;3.44;100.00
5238;BME280;2639;49.700;7.962;2022-12-07T19:18:37;98536.63;;;3.47;100.00
5238;BME280;2639;49.700;7.962;2022-12-07T19:21:49;98536.91;;;3.33;100.00
5238;BME280;2639;49.700;7.962;2022-12-07T19:24:59;98534.50;;;3.43;100.00
5238;BME280;2639;49.700;7.962;2022-12-07T19:28:12;98538.56;;;3.50;100.00
5238;BME280;2639;49.700;7.962;2022-12-07T19:31:22;98530.22;;;3.51;100.00
5238;BME280;2639;49.700;7.962;2022-12-07T19:34:32;98529.75;;;3.46;100.00
5238;BME280;2639;49.700;7.962;2022-12-07T19:37:43;98531.53;;;3.47;100.00
5238;BME280;2639;49.700;7.962;2022-12-07T19:40:53;98532.72;;;3.42;100.00
5238;BME280;2639;49.700;7.962;2022-12-07T19:44:05;98526.91;;;3.43;100.00
5238;BME280;2639;49.700;7.962;2022-12-07T19:47:16;98522.41;;;3.41;100.00
5238;BME280;2639;49.700;7.962;2022-12-07T19:50:26;98526.75;;;3.50;100.00
5238;BME280;2639;49.700;7.962;2022-12-07T19:53:37;98524.53;;;3.53;100.00
5238;BME280;2639;49.700;7.962;2022-12-07T19:56:48;98524.53;;;3.53;100.00
5238;BME280;2639;49.700;7.962;2022-12-07T19:59:58;98525.41;;;3.45;100.00
5238;BME280;2639;49.700;7.962;2022-12-07T20:03:12;98518.56;;;3.44;100.00
5238;BME280;2639;49.700;7.962;2022-12-07T20:06:22;98509.91;;;3.51;100.00
5238;BME280;2639;49.700;7.962;2022-12-07T20:09:34;98500.34;;;3.48;100.00
5238;BME280;2639;49.700;7.962;2022-12-07T20:12:44;98497.34;;;3.52;100.00
5238;BME280;2639;49.700;7.962;2022-12-07T20:16:05;98492.88;;;3.58;100.00
5238;BME280;2639;49.700;7.962;2022-12-07T20:19:27;98491.66;;;3.64;100.00
5238;BME280;2639;49.700;7.962;2022-12-07T20:22:37;98490.19;;;3.57;100.00
5238;BME280;2639;49.700;7.962;2022-12-07T20:25:48;98489.56;;;3.59;100.00
5238;BME280;2639;49.700;7.962;2022-12-07T20:28:59;98482.28;;;3.54;100.00
5238;BME280;2639;49.700;7.962;2022-12-07T20:32:16;98483.94;;;3.53;100.00
5238;BME280;2639;49.700;7.962;2022-12-07T20:35:26;98486.03;;;3.57;100.00
5238;BME280;2639;49.700;7.962;2022-12-07T20:38:36;98491.66;;;3.64;100.00
5238;BME280;2639;49.700;7.962;2022-12-07T20:41:48;98484.94;;;3.73;100.00
5238;BME280;2639;49.700;7.962;2022-12-07T20:45:09;98484.50;;;3.77;100.00
5238;BME280;2639;49.700;7.962;2022-12-07T20:48:20;98479.44;;;3.77;100.00
5238;BME280;2639;49.700;7.962;2022-12-07T20:51:30;98481.19;;;3.78;100.00
5238;BME280;2639;49.700;7.962;2022-12-07T20:54:40;98476.44;;;3.81;100.00
5238;BME280;2639;49.700;7.962;2022-12-07T20:57:52;98474.94;;;3.83;100.00
5238;BME280;2639;49.700;7.962;2022-12-07T21:01:02;98462.84;;;3.72;100.00
5238;BME280;2639;49.700;7.962;2022-12-07T21:04:13;98458.50;;;3.71;100.00
